sensor_id;sensor_type;location;lat;lon;timestamp;pressure;altitude;pressure_sealevel;temperature;humidity
74437;BME280;62868;52.360;30.424;2023-02-15T00:01:21;1036.1;;;3.2;52.7
74437;BME280;62868;52.360;30.424;2023-02-15T00:06:39;1036.1;;;3.2;52.8
74437;BME280;62868;52.360;30.424;2023-02-15T00:11:23;1036.2;;;3.2;52.9
74437;BME280;62868;52.360;30.424;2023-02-15T00:16:33;1036.2;;;3.1;52.9
74437;BME280;62868;52.360;30.424;2023-02-15T00:21:34;1036.3;;;3.1;53
74437;BME280;62868;52.360;30.424;2023-02-15T00:26:21;1036.3;;;3.1;52.9
74437;BME280;62868;52.360;30.424;2023-02-15T00:31:55;1036.4;;;3;52.9
74437;BME280;62868;52.360;30.424;2023-02-15T00:36:53;1036.4;;;3;52.9
74437;BME280;62868;52.360;30.424;2023-02-15T00:41:29;1036.4;;;2.9;52.8
74437;BME280;62868;52.360;30.424;2023-02-15T00:46:55;1036.4;;;2.9;52.8
74437;BME280;62868;52.360;30.424;2023-02-15T00:51:55;1036.4;;;2.9;52.7
74437;BME280;62868;52.360;30.424;2023-02-15T00:56:33;1036.4;;;2.8;52.6
74437;BME280;62868;52.360;30.424;2023-02-15T01:01:10;1036.4;;;2.7;52.5
74437;BME280;62868;52.360;30.424;2023-02-15T01:06:55;1036.4;;;2.7;52.5
74437;BME280;62868;52.360;30.424;2023-02-15T01:11:10;1036.5;;;2.6;52.4
74437;BME280;62868;52.360;30.424;2023-02-15T01:16:41;1036.5;;;2.6;52.4
74437;BME280;62868;52.360;30.424;2023-02-15T01:21:22;1036.5;;;2.7;52.4
74437;BME280;62868;52.360;30.424;2023-02-15T01:26:43;1036.5;;;2.6;52.3
74437;BME280;62868;52.360;30.424;2023-02-15T01:31:45;1036.5;;;2.6;52.4
74437;BME280;62868;52.360;30.424;2023-02-15T01:36:39;1036.5;;;2.6;52.4
74437;BME280;62868;52.360;30.424;2023-02-15T01:41:55;1036.5;;;2.5;52.5
74437;BME280;62868;52.360;30.424;2023-02-15T01:46:09;1036.5;;;2.4;52.6
74437;BME280;62868;52.360;30.424;2023-02-15T01:51:18;1036.6;;;2.4;52.6
74437;BME280;62868;52.360;30.424;2023-02-15T01:56:10;1036.6;;;2.2;52.7
74437;BME280;62868;52.360;30.424;2023-02-15T02:01:45;1036.6;;;2.1;52.8
74437;BME280;62868;52.360;30.424;2023-02-15T02:06:09;1036.6;;;2;52.9
74437;BME280;62868;52.360;30.424;2023-02-15T02:11:10;1036.6;;;1.9;53
74437;BME280;62868;52.360;30.424;2023-02-15T02:16:51;1036.6;;;1.7;53.1
74437;BME280;62868;52.360;30.424;2023-02-15T02:21:52;1036.7;;;1.6;53.2
74437;BME280;62868;52.360;30.424;2023-02-15T02:27:21;1036.8;;;1.4;53.3
74437;BME280;62868;52.360;30.424;2023-02-15T02:31:33;1036.8;;;1.3;53.4
74437;BME280;62868;52.360;30.424;2023-02-15T02:36:56;1036.7;;;1.2;53.5
74437;BME280;62868;52.360;30.424;2023-02-15T02:41:31;1036.8;;;1.2;53.6
74437;BME280;62868;52.360;30.424;2023-02-15T02:46:51;1036.8;;;1.1;53.7
74437;BME280;62868;52.360;30.424;2023-02-15T02:51:09;1036.8;;;1;53.9
74437;BME280;62868;52.360;30.424;2023-02-15T02:56:47;1036.9;;;0.9;53.9
74437;BME280;62868;52.360;30.424;2023-02-15T03:01:24;1037;;;0.8;54.1
74437;BME280;62868;52.360;30.424;2023-02-15T03:06:37;1037;;;0.7;54.2
74437;BME280;62868;52.360;30.424;2023-02-15T03:11:42;1037.1;;;0.7;54.3
74437;BME280;62868;52.360;30.424;2023-02-15T03:16:09;1037.1;;;0.6;54.5
74437;BME280;62868;52.360;30.424;2023-02-15T03:21:57;1037.1;;;0.6;54.5
74437;BME280;62868;52.360;30.424;2023-02-15T03:26:32;1037.2;;;0.5;54.6
74437;BME280;62868;52.360;30.424;2023-02-15T03:31:56;1037.2;;;0.5;54.7
74437;BME280;62868;52.360;30.424;2023-02-15T03:36:37;1037.3;;;0.4;54.9
74437;BME280;62868;52.360;30.424;2023-02-15T03:41:40;1037.4;;;0.3;55
74437;BME280;62868;52.360;30.424;2023-02-15T03:46:11;1037.3;;;0.3;55.1
74437;BME280;62868;52.360;30.424;2023-02-15T03:51:46;1037.3;;;0.3;55.2
74437;BME280;62868;52.360;30.424;2023-02-15T03:56:21;1037.4;;;0.2;55.3
74437;BME280;62868;52.360;30.424;2023-02-15T04:01:40;1037.4;;;0.2;55.4
74437;BME280;62868;52.360;30.424;2023-02-15T04:06:39;1037.4;;;0.1;55.6
74437;BME280;62868;52.360;30.424;2023-02-15T04:11:53;1037.5;;;0.1;55.7
74437;BME280;62868;52.360;30.424;2023-02-15T04:16:55;1037.5;;;0;55.8
74437;BME280;62868;52.360;30.424;2023-02-15T04:21:41;1037.4;;;0;55.9
74437;BME280;62868;52.360;30.424;2023-02-15T04:26:53;1037.5;;;0;56
74437;BME280;62868;52.360;30.424;2023-02-15T04:31:09;1037.5;;;-0.1;56
74437;BME280;62868;52.360;30.424;2023-02-15T04:36:21;1037.6;;;-0.2;56.1
74437;BME280;62868;52.360;30.424;2023-02-15T04:41:45;1037.7;;;-0.2;56.2
74437;BME280;62868;52.360;30.424;2023-02-15T04:46:47;1037.7;;;-0.2;56.3
74437;BME280;62868;52.360;30.424;2023-02-15T04:51:35;1037.7;;;-0.3;56.4
74437;BME280;62868;52.360;30.424;2023-02-15T04:56:55;1037.8;;;-0.3;56.5
74437;BME280;62868;52.360;30.424;2023-02-15T05:01:33;1037.8;;;-0.3;56.5
74437;BME280;62868;52.360;30.424;2023-02-15T05:06:55;1037.7;;;-0.3;56.6
74437;BME280;62868;52.360;30.424;2023-02-15T05:11:43;1037.8;;;-0.4;56.7
74437;BME280;62868;52.360;30.424;2023-02-15T05:16:33;1037.8;;;-0.4;56.7
74437;BME280;62868;52.360;30.424;2023-02-15T05:21:33;1037.9;;;-0.4;56.8
74437;BME280;62868;52.360;30.424;2023-02-15T05:26:09;1037.9;;;-0.4;56.8
74437;BME280;62868;52.360;30.424;2023-02-15T05:31:21;1038;;;-0.4;56.8
74437;BME280;62868;52.360;30.424;2023-02-15T05:36:21;1038;;;-0.3;56.8
74437;BME280;62868;52.360;30.424;2023-02-15T05:41:39;1038.1;;;-0.3;56.8
74437;BME280;62868;52.360;30.424;2023-02-15T05:46:35;1038.1;;;-0.2;56.8
74437;BME280;62868;52.360;30.424;2023-02-15T05:51:53;1038.2;;;-0.1;56.7
74437;BME280;62868;52.360;30.424;2023-02-15T05:56:21;1038.2;;;0;56.6
74437;BME280;62868;52.360;30.424;2023-02-15T06:01:41;1038.2;;;0.2;56.5
74437;BME280;62868;52.360;30.424;2023-02-15T06:06:47;1038.3;;;0.4;56.4
74437;BME280;62868;52.360;30.424;2023-02-15T06:11:21;1038.3;;;0.7;56.2
74437;BME280;62868;52.360;30.424;2023-02-15T06:16:33;1038.3;;;1.1;55.9
74437;BME280;62868;52.360;30.424;2023-02-15T06:21:35;1038.3;;;1.5;55.6
74437;BME280;62868;52.360;30.424;2023-02-15T06:26:57;1038.4;;;1.8;55.4
74437;BME280;62868;52.360;30.424;2023-02-15T06:31:25;1038.4;;;2.2;55.1
74437;BME280;62868;52.360;30.424;2023-02-15T06:36:27;1038.5;;;2.5;54.9
74437;BME280;62868;52.360;30.424;2023-02-15T06:41:09;1038.5;;;2.8;54.6
74437;BME280;62868;52.360;30.424;2023-02-15T06:46:57;1038.5;;;3;54.4
74437;BME280;62868;52.360;30.424;2023-02-15T06:51:33;1038.6;;;3.3;54.1
74437;BME280;62868;52.360;30.424;2023-02-15T06:56:41;1038.6;;;3.6;53.9
74437;BME280;62868;52.360;30.424;2023-02-15T07:01:33;1038.6;;;3.8;53.7
74437;BME280;62868;52.360;30.424;2023-02-15T07:06:09;1038.5;;;3.9;53.6
74437;BME280;62868;52.360;30.424;2023-02-15T07:11:33;1038.5;;;3.9;53.4
74437;BME280;62868;52.360;30.424;2023-02-15T07:16:10;1038.5;;;4;53.1
74437;BME280;62868;52.360;30.424;2023-02-15T07:21:53;1038.6;;;4.1;53
74437;BME280;62868;52.360;30.424;2023-02-15T07:26:49;1038.6;;;4.3;52.8
74437;BME280;62868;52.360;30.424;2023-02-15T07:31:29;1038.6;;;4.5;52.5
74437;BME280;62868;52.360;30.424;2023-02-15T07:36:55;1038.7;;;4.6;52.4
74437;BME280;62868;52.360;30.424;2023-02-15T07:41:53;1038.7;;;4.7;52.2
74437;BME280;62868;52.360;30.424;2023-02-15T07:46:33;1038.6;;;4.7;52
74437;BME280;62868;52.360;30.424;2023-02-15T07:51:17;1038.6;;;4.9;51.8
74437;BME280;62868;52.360;30.424;2023-02-15T07:56:47;1038.6;;;4.9;51.7
74437;BME280;62868;52.360;30.424;2023-02-15T08:01:09;1038.6;;;5;51.5
74437;BME280;62868;52.360;30.424;2023-02-15T08:06:19;1038.5;;;5.2;51.3
74437;BME280;62868;52.360;30.424;2023-02-15T08:11:34;1038.5;;;5.1;51
74437;BME280;62868;52.360;30.424;2023-02-15T08:16:42;1038.4;;;4.9;51
74437;BME280;62868;52.360;30.424;2023-02-15T08:21:46;1038.5;;;5;50.7
74437;BME280;62868;52.360;30.424;2023-02-15T08:26:43;1038.5;;;5.2;50.6
74437;BME280;62868;52.360;30.424;2023-02-15T08:31:52;1038.5;;;5.6;50.4
74437;BME280;62868;52.360;30.424;2023-02-15T08:36:22;1038.5;;;5.9;50.2
74437;BME280;62868;52.360;30.424;2023-02-15T08:41:46;1038.5;;;5.9;50
74437;BME280;62868;52.360;30.424;2023-02-15T08:46:44;1038.5;;;6;49.7
74437;BME280;62868;52.360;30.424;2023-02-15T08:51:48;1038.4;;;6.1;49.5
74437;BME280;62868;52.360;30.424;2023-02-15T08:56:18;1038.4;;;6.3;49.4
74437;BME280;62868;52.360;30.424;2023-02-15T09:01:32;1038.3;;;6.5;49.1
74437;BME280;62868;52.360;30.424;2023-02-15T09:06:29;1038.3;;;6.4;48.8
74437;BME280;62868;52.360;30.424;2023-02-15T09:11:33;1038.3;;;6.5;48.7
74437;BME280;62868;52.360;30.424;2023-02-15T09:16:55;1038.3;;;6.7;48.6
74437;BME280;62868;52.360;30.424;2023-02-15T09:21:10;1038.3;;;7.2;48.3
74437;BME280;62868;52.360;30.424;2023-02-15T09:26:53;1038.3;;;7.5;48.2
74437;BME280;62868;52.360;30.424;2023-02-15T09:31:22;1038.3;;;7.8;48
74437;BME280;62868;52.360;30.424;2023-02-15T09:36:43;1038.3;;;8;47.8
74437;BME280;62868;52.360;30.424;2023-02-15T09:41:14;1038.2;;;8.2;47.5
74437;BME280;62868;52.360;30.424;2023-02-15T09:46:52;1038.2;;;8.2;47.4
74437;BME280;62868;52.360;30.424;2023-02-15T09:51:26;1038.2;;;8.2;47.5
74437;BME280;62868;52.360;30.424;2023-02-15T09:56:11;1038.2;;;8.1;47.3
74437;BME280;62868;52.360;30.424;2023-02-15T10:01:45;1038.2;;;8.1;47.1
74437;BME280;62868;52.360;30.424;2023-02-15T10:06:51;1038.1;;;8.3;46.9
74437;BME280;62868;52.360;30.424;2023-02-15T10:12:01;1038.1;;;8.2;46.7
74437;BME280;62868;52.360;30.424;2023-02-15T10:16:45;1038;;;8.4;46.4
74437;BME280;62868;52.360;30.424;2023-02-15T10:21:58;1038.1;;;8.7;46
74437;BME280;62868;52.360;30.424;2023-02-15T10:26:11;1038;;;8.9;45.9
74437;BME280;62868;52.360;30.424;2023-02-15T10:31:43;1037.9;;;8.6;46
74437;BME280;62868;52.360;30.424;2023-02-15T10:36:12;1037.9;;;8.1;46.3
74437;BME280;62868;52.360;30.424;2023-02-15T10:41:50;1037.9;;;7.9;46.4
74437;BME280;62868;52.360;30.424;2023-02-15T10:46:28;1037.8;;;7.9;46.3
74437;BME280;62868;52.360;30.424;2023-02-15T10:51:37;1037.8;;;8;46.2
74437;BME280;62868;52.360;30.424;2023-02-15T10:56:47;1037.7;;;7.9;46.2
74437;BME280;62868;52.360;30.424;2023-02-15T11:01:58;1037.7;;;8.7;45.5
74437;BME280;62868;52.360;30.424;2023-02-15T11:06:58;1037.7;;;8.9;45.3
74437;BME280;62868;52.360;30.424;2023-02-15T11:11:44;1037.7;;;9.1;45.2
74437;BME280;62868;52.360;30.424;2023-02-15T11:16:59;1037.7;;;8.8;45.6
74437;BME280;62868;52.360;30.424;2023-02-15T11:21:22;1037.7;;;8.6;45.7
74437;BME280;62868;52.360;30.424;2023-02-15T11:26:44;1037.7;;;8.7;45.6
74437;BME280;62868;52.360;30.424;2023-02-15T11:31:35;1037.8;;;8.7;45.6
74437;BME280;62868;52.360;30.424;2023-02-15T11:36:45;1037.8;;;8.6;45.7
74437;BME280;62868;52.360;30.424;2023-02-15T11:41:37;1037.8;;;8.4;45.6
74437;BME280;62868;52.360;30.424;2023-02-15T11:46:57;1037.8;;;8.3;45.6
74437;BME280;62868;52.360;30.424;2023-02-15T11:51:33;1037.8;;;8.3;45.5
74437;BME280;62868;52.360;30.424;2023-02-15T11:57:01;1037.7;;;8.3;45.5
74437;BME280;62868;52.360;30.424;2023-02-15T12:01:42;1037.7;;;8.3;45.5
74437;BME280;62868;52.360;30.424;2023-02-15T12:06:34;1037.7;;;8.3;45.4
74437;BME280;62868;52.360;30.424;2023-02-15T12:11:20;1037.7;;;8.2;45.5
74437;BME280;62868;52.360;30.424;2023-02-15T12:16:11;1037.6;;;8.3;45.3
74437;BME280;62868;52.360;30.424;2023-02-15T12:21:40;1037.6;;;8.4;45.3
74437;BME280;62868;52.360;30.424;2023-02-15T12:26:23;1037.5;;;8.6;45
74437;BME280;62868;52.360;30.424;2023-02-15T12:31:31;1037.5;;;8.3;45.3
74437;BME280;62868;52.360;30.424;2023-02-15T12:36:40;1037.4;;;8;45.5
74437;BME280;62868;52.360;30.424;2023-02-15T12:41:59;1037.4;;;7.9;45.6
74437;BME280;62868;52.360;30.424;2023-02-15T12:46:33;1037.4;;;7.8;45.7
74437;BME280;62868;52.360;30.424;2023-02-15T12:51:44;1037.4;;;7.7;45.8
74437;BME280;62868;52.360;30.424;2023-02-15T12:56:26;1037.5;;;7.7;45.8
74437;BME280;62868;52.360;30.424;2023-02-15T13:01:10;1037.5;;;7.5;46
74437;BME280;62868;52.360;30.424;2023-02-15T13:06:17;1037.5;;;7.3;46
74437;BME280;62868;52.360;30.424;2023-02-15T13:11:10;1037.6;;;7.1;46.1
74437;BME280;62868;52.360;30.424;2023-02-15T13:17:00;1037.5;;;6.9;46.3
74437;BME280;62868;52.360;30.424;2023-02-15T13:22:00;1037.6;;;6.8;46.4
74437;BME280;62868;52.360;30.424;2023-02-15T13:26:11;1037.6;;;6.5;46.5
74437;BME280;62868;52.360;30.424;2023-02-15T13:31:58;1037.6;;;6.4;46.6
74437;BME280;62868;52.360;30.424;2023-02-15T13:37:01;1037.6;;;6.2;46.7
74437;BME280;62868;52.360;30.424;2023-02-15T13:41:40;1037.6;;;6;46.8
74437;BME280;62868;52.360;30.424;2023-02-15T13:46:42;1037.6;;;5.9;46.9
74437;BME280;62868;52.360;30.424;2023-02-15T13:51:47;1037.7;;;5.8;47
74437;BME280;62868;52.360;30.424;2023-02-15T13:56:23;1037.7;;;5.6;47.2
74437;BME280;62868;52.360;30.424;2023-02-15T14:01:21;1037.7;;;5.6;47.3
74437;BME280;62868;52.360;30.424;2023-02-15T14:06:27;1037.7;;;5.5;47.4
74437;BME280;62868;52.360;30.424;2023-02-15T14:11:50;1037.7;;;5.4;47.6
74437;BME280;62868;52.360;30.424;2023-02-15T14:16:51;1037.7;;;5.3;47.7
74437;BME280;62868;52.360;30.424;2023-02-15T14:21:32;1037.7;;;5.2;47.8
74437;BME280;62868;52.360;30.424;2023-02-15T14:27:03;1037.7;;;5.2;48
74437;BME280;62868;52.360;30.424;2023-02-15T14:31:32;1037.7;;;5.1;48.2
74437;BME280;62868;52.360;30.424;2023-02-15T14:36:48;1037.7;;;5.1;48.2
74437;BME280;62868;52.360;30.424;2023-02-15T14:41:40;1037.6;;;5;48.4
74437;BME280;62868;52.360;30.424;2023-02-15T14:47:00;1037.6;;;4.9;48.5
74437;BME280;62868;52.360;30.424;2023-02-15T14:51:56;1037.7;;;4.8;48.6
74437;BME280;62868;52.360;30.424;2023-02-15T14:56:24;1037.7;;;4.7;48.7
74437;BME280;62868;52.360;30.424;2023-02-15T15:01:35;1037.7;;;4.7;48.9
74437;BME280;62868;52.360;30.424;2023-02-15T15:06:43;1037.6;;;4.6;49
74437;BME280;62868;52.360;30.424;2023-02-15T15:11:39;1037.7;;;4.5;49.1
74437;BME280;62868;52.360;30.424;2023-02-15T15:16:28;1037.7;;;4.4;49.2
74437;BME280;62868;52.360;30.424;2023-02-15T15:22:02;1037.7;;;4.3;49.2
74437;BME280;62868;52.360;30.424;2023-02-15T15:26:33;1037.7;;;4.2;49.3
74437;BME280;62868;52.360;30.424;2023-02-15T15:31:50;1037.8;;;4.2;49.3
74437;BME280;62868;52.360;30.424;2023-02-15T15:36:16;1037.8;;;4.1;49.4
74437;BME280;62868;52.360;30.424;2023-02-15T15:41:48;1037.8;;;4.1;49.5
74437;BME280;62868;52.360;30.424;2023-02-15T15:46:27;1037.8;;;4.1;49.6
74437;BME280;62868;52.360;30.424;2023-02-15T15:51:20;1037.9;;;4;49.7
74437;BME280;62868;52.360;30.424;2023-02-15T15:56:48;1037.9;;;4;49.8
74437;BME280;62868;52.360;30.424;2023-02-15T16:01:46;1037.9;;;4;49.9
74437;BME280;62868;52.360;30.424;2023-02-15T16:07:13;1038;;;4;50
74437;BME280;62868;52.360;30.424;2023-02-15T16:11:31;1037.9;;;4;50
74437;BME280;62868;52.360;30.424;2023-02-15T16:16:58;1038;;;4;50.1
74437;BME280;62868;52.360;30.424;2023-02-15T16:21:26;1038;;;4;50.3
74437;BME280;62868;52.360;30.424;2023-02-15T16:26:49;1038;;;4;50.3
74437;BME280;62868;52.360;30.424;2023-02-15T16:31:35;1038;;;4;50.4
74437;BME280;62868;52.360;30.424;2023-02-15T16:36:47;1038;;;4;50.5
74437;BME280;62868;52.360;30.424;2023-02-15T16:41:24;1038;;;3.9;50.6
74437;BME280;62868;52.360;30.424;2023-02-15T16:46:46;1037.9;;;3.9;50.7
74437;BME280;62868;52.360;30.424;2023-02-15T16:51:54;1037.9;;;3.9;50.8
74437;BME280;62868;52.360;30.424;2023-02-15T16:56:59;1037.9;;;3.9;50.8
74437;BME280;62868;52.360;30.424;2023-02-15T17:01:59;1037.9;;;3.8;50.9
74437;BME280;62868;52.360;30.424;2023-02-15T17:06:52;1038;;;3.8;51
74437;BME280;62868;52.360;30.424;2023-02-15T17:11:57;1038;;;3.8;51
74437;BME280;62868;52.360;30.424;2023-02-15T17:16:48;1038;;;3.8;51.1
74437;BME280;62868;52.360;30.424;2023-02-15T17:21:37;1038;;;3.8;51.1
74437;BME280;62868;52.360;30.424;2023-02-15T17:26:32;1037.9;;;3.8;51.2
74437;BME280;62868;52.360;30.424;2023-02-15T17:31:47;1038;;;3.8;51.3
74437;BME280;62868;52.360;30.424;2023-02-15T17:36:37;1037.9;;;3.8;51.3
74437;BME280;62868;52.360;30.424;2023-02-15T17:41:59;1037.9;;;3.8;51.4
74437;BME280;62868;52.360;30.424;2023-02-15T17:46:23;1037.9;;;3.8;51.5
74437;BME280;62868;52.360;30.424;2023-02-15T17:52:01;1037.8;;;3.8;51.6
74437;BME280;62868;52.360;30.424;2023-02-15T17:56:43;1037.8;;;3.8;51.6
74437;BME280;62868;52.360;30.424;2023-02-15T18:01:11;1037.9;;;3.8;51.8
74437;BME280;62868;52.360;30.424;2023-02-15T18:06:09;1037.9;;;3.8;51.8
74437;BME280;62868;52.360;30.424;2023-02-15T18:11:23;1037.8;;;3.7;51.9
74437;BME280;62868;52.360;30.424;2023-02-15T18:16:36;1037.8;;;3.7;51.9
74437;BME280;62868;52.360;30.424;2023-02-15T18:21:47;1037.8;;;3.7;51.9
74437;BME280;62868;52.360;30.424;2023-02-15T18:26:11;1037.8;;;3.7;52
74437;BME280;62868;52.360;30.424;2023-02-15T18:31:35;1037.9;;;3.7;52
74437;BME280;62868;52.360;30.424;2023-02-15T18:37:00;1037.9;;;3.6;52.1
74437;BME280;62868;52.360;30.424;2023-02-15T18:41:13;1037.9;;;3.7;52.2
74437;BME280;62868;52.360;30.424;2023-02-15T18:46:45;1037.9;;;3.7;52.3
74437;BME280;62868;52.360;30.424;2023-02-15T18:51:35;1037.9;;;3.7;52.3
74437;BME280;62868;52.360;30.424;2023-02-15T18:56:25;1038;;;3.7;52.4
74437;BME280;62868;52.360;30.424;2023-02-15T19:01:19;1038;;;3.7;52.4
74437;BME280;62868;52.360;30.424;2023-02-15T19:06:21;1038;;;3.7;52.4
74437;BME280;62868;52.360;30.424;2023-02-15T19:11:45;1038;;;3.7;52.5
74437;BME280;62868;52.360;30.424;2023-02-15T19:16:26;1037.9;;;3.7;52.5
74437;BME280;62868;52.360;30.424;2023-02-15T19:21:31;1037.9;;;3.7;52.6
74437;BME280;62868;52.360;30.424;2023-02-15T19:26:37;1037.9;;;3.7;52.6
74437;BME280;62868;52.360;30.424;2023-02-15T19:31:59;1037.9;;;3.7;52.7
74437;BME280;62868;52.360;30.424;2023-02-15T19:36:35;1037.9;;;3.7;52.7
74437;BME280;62868;52.360;30.424;2023-02-15T19:41:45;1037.8;;;3.7;52.8
74437;BME280;62868;52.360;30.424;2023-02-15T19:46:37;1037.8;;;3.7;52.8
74437;BME280;62868;52.360;30.424;2023-02-15T19:51:09;1037.8;;;3.7;52.8
74437;BME280;62868;52.360;30.424;2023-02-15T19:56:33;1037.8;;;3.6;52.9
74437;BME280;62868;52.360;30.424;2023-02-15T20:01:19;1037.7;;;3.6;53
74437;BME280;62868;52.360;30.424;2023-02-15T20:07:00;1037.8;;;3.6;53
74437;BME280;62868;52.360;30.424;2023-02-15T20:12:01;1037.7;;;3.6;53
74437;BME280;62868;52.360;30.424;2023-02-15T20:16:35;1037.7;;;3.6;53
74437;BME280;62868;52.360;30.424;2023-02-15T20:21:59;1037.7;;;3.6;53.1
74437;BME280;62868;52.360;30.424;2023-02-15T20:27:01;1037.7;;;3.6;53.1
74437;BME280;62868;52.360;30.424;2023-02-15T20:31:19;1037.7;;;3.6;53.1
74437;BME280;62868;52.360;30.424;2023-02-15T20:36:11;1037.7;;;3.6;53.1
74437;BME280;62868;52.360;30.424;2023-02-15T20:41:57;1037.7;;;3.6;53.2
74437;BME280;62868;52.360;30.424;2023-02-15T20:46:09;1037.6;;;3.6;53.2
74437;BME280;62868;52.360;30.424;2023-02-15T20:51:37;1037.6;;;3.6;53.3
74437;BME280;62868;52.360;30.424;2023-02-15T20:56:47;1037.6;;;3.6;53.4
74437;BME280;62868;52.360;30.424;2023-02-15T21:01:43;1037.6;;;3.6;53.5
74437;BME280;62868;52.360;30.424;2023-02-15T21:06:57;1037.6;;;3.6;53.6
74437;BME280;62868;52.360;30.424;2023-02-15T21:11:35;1037.6;;;3.6;53.6
74437;BME280;62868;52.360;30.424;2023-02-15T21:17:01;1037.6;;;3.6;53.6
74437;BME280;62868;52.360;30.424;2023-02-15T21:21:23;1037.6;;;3.6;53.7
74437;BME280;62868;52.360;30.424;2023-02-15T21:26:33;1037.5;;;3.5;53.7
74437;BME280;62868;52.360;30.424;2023-02-15T21:31:31;1037.6;;;3.5;53.8
74437;BME280;62868;52.360;30.424;2023-02-15T21:36:35;1037.6;;;3.5;53.9
74437;BME280;62868;52.360;30.424;2023-02-15T21:41:11;1037.6;;;3.5;53.9
74437;BME280;62868;52.360;30.424;2023-02-15T21:46:36;1037.7;;;3.5;54
74437;BME280;62868;52.360;30.424;2023-02-15T21:51:43;1037.7;;;3.5;54
74437;BME280;62868;52.360;30.424;2023-02-15T21:56:47;1037.7;;;3.5;54
74437;BME280;62868;52.360;30.424;2023-02-15T22:01:44;1037.5;;;3.5;54
74437;BME280;62868;52.360;30.424;2023-02-15T22:06:10;1037.5;;;3.5;54
74437;BME280;62868;52.360;30.424;2023-02-15T22:11:57;1037.5;;;3.5;54.1
74437;BME280;62868;52.360;30.424;2023-02-15T22:16:12;1037.5;;;3.5;54.1
74437;BME280;62868;52.360;30.424;2023-02-15T22:21:45;1037.5;;;3.5;54.1
74437;BME280;62868;52.360;30.424;2023-02-15T22:26:49;1037.5;;;3.5;54.1
74437;BME280;62868;52.360;30.424;2023-02-15T22:31:47;1037.5;;;3.6;54.2
74437;BME280;62868;52.360;30.424;2023-02-15T22:36:45;1037.5;;;3.6;54.1
74437;BME280;62868;52.360;30.424;2023-02-15T22:41:45;1037.4;;;3.6;54.2
74437;BME280;62868;52.360;30.424;2023-02-15T22:46:22;1037.4;;;3.6;54.2
74437;BME280;62868;52.360;30.424;2023-02-15T22:52:01;1037.3;;;3.5;54.3
74437;BME280;62868;52.360;30.424;2023-02-15T22:57:01;1037.3;;;3.5;54.4
74437;BME280;62868;52.360;30.424;2023-02-15T23:01:28;1037.2;;;3.5;54.4
74437;BME280;62868;52.360;30.424;2023-02-15T23:06:57;1037.2;;;3.5;54.5
74437;BME280;62868;52.360;30.424;2023-02-15T23:11:09;1037.1;;;3.5;54.5
74437;BME280;62868;52.360;30.424;2023-02-15T23:16:45;1037.2;;;3.4;54.6
74437;BME280;62868;52.360;30.424;2023-02-15T23:21:24;1037.1;;;3.4;54.5
74437;BME280;62868;52.360;30.424;2023-02-15T23:26:48;1037.2;;;3.4;54.6
74437;BME280;62868;52.360;30.424;2023-02-15T23:31:35;1037.2;;;3.4;54.6
74437;BME280;62868;52.360;30.424;2023-02-15T23:36:59;1037.2;;;3.4;54.7
74437;BME280;62868;52.360;30.424;2023-02-15T23:41:22;1037.2;;;3.3;54.8
74437;BME280;62868;52.360;30.424;2023-02-15T23:46:59;1037.2;;;3.3;54.8
74437;BME280;62868;52.360;30.424;2023-02-15T23:51:48;1037.3;;;3.3;54.8
74437;BME280;62868;52.360;30.424;2023-02-15T23:56:10;1037.3;;;3.3;54.9
